Time;durP1;ratioP1;P1;durP2;ratioP2;P2;SDS_P1;SDS_P2;PMS_P1;PMS_P2;Temp;Humidity;BMP_temperature;BMP_pressure;BME280_temperature;BME280_humidity;BME280_pressure;Samples;Min_cycle;Max_cycle;Signal;HPM_P1;HPM_P2
2024/02/04 00:01:25;;;;;;;8.30;6.10;;;;;;;22.13;29.37;101043.80;104069;1283;59752;-76
2024/02/04 00:03:51;;;;;;;9.30;6.60;;;;;;;22.12;29.33;101029.11;104177;1282;59813;-76
2024/02/04 00:06:16;;;;;;;8.90;6.40;;;;;;;22.13;29.36;101031.77;104141;1286;60581;-77
2024/02/04 00:08:43;;;;;;;8.40;6.30;;;;;;;22.13;29.30;101031.23;104202;1282;60581;-76
2024/02/04 00:11:11;;;;;;;9.30;6.30;;;;;;;22.13;29.34;101032.45;104204;1288;60584;-76
2024/02/04 00:13:38;;;;;;;8.70;6.30;;;;;;;22.14;29.35;101026.36;104033;1283;73462;-76
2024/02/04 00:16:05;;;;;;;9.30;6.70;;;;;;;22.13;29.29;101026.91;103808;1282;60575;-76
2024/02/04 00:18:32;;;;;;;8.90;6.50;;;;;;;22.13;29.20;101027.63;104043;1283;61066;-76
2024/02/04 00:20:58;;;;;;;8.20;6.20;;;;;;;22.14;29.22;101028.67;104321;1283;60520;-77
2024/02/04 00:23:23;;;;;;;8.00;6.10;;;;;;;22.14;29.36;101021.67;104163;1286;60638;-77
2024/02/04 00:25:49;;;;;;;10.20;6.40;;;;;;;22.15;29.31;101028.43;104066;1283;61525;-77
2024/02/04 00:28:15;;;;;;;8.80;6.00;;;;;;;22.15;29.42;101033.08;104098;1283;60498;-77
2024/02/04 00:30:40;;;;;;;9.70;6.20;;;;;;;22.15;29.29;101020.35;104122;1283;60638;-77
2024/02/04 00:33:06;;;;;;;8.40;6.30;;;;;;;22.15;29.35;101016.02;104319;1285;60616;-77
2024/02/04 00:35:32;;;;;;;8.70;6.10;;;;;;;22.16;29.32;101019.73;104220;1282;73908;-77
2024/02/04 00:37:58;;;;;;;8.80;6.30;;;;;;;22.16;29.27;101020.27;104100;1283;60559;-76
2024/02/04 00:40:26;;;;;;;9.40;6.20;;;;;;;22.16;29.18;101015.78;104099;1283;60657;-77
2024/02/04 00:42:52;;;;;;;8.50;6.20;;;;;;;22.16;29.32;101008.44;104143;1282;73330;-75
2024/02/04 00:45:17;;;;;;;8.50;6.10;;;;;;;22.15;29.26;101008.45;104354;1285;60576;-77
2024/02/04 00:47:43;;;;;;;9.10;6.40;;;;;;;22.16;29.25;101007.70;104108;1283;60510;-76
2024/02/04 00:50:09;;;;;;;8.40;6.10;;;;;;;22.16;29.16;101002.31;104111;1282;60529;-76
2024/02/04 00:52:35;;;;;;;10.20;6.60;;;;;;;22.17;29.19;100986.33;104060;1288;60622;-76
2024/02/04 00:55:01;;;;;;;8.50;6.10;;;;;;;22.17;29.20;100977.17;104207;1282;60580;-77
2024/02/04 00:57:27;;;;;;;7.70;6.00;;;;;;;22.17;29.28;100970.72;104020;1282;60578;-76
2024/02/04 00:59:53;;;;;;;8.40;5.90;;;;;;;22.16;29.29;100975.23;104154;1283;60556;-76
2024/02/04 01:02:19;;;;;;;7.80;5.80;;;;;;;22.17;29.19;100966.56;104266;1282;60495;-77
2024/02/04 01:04:44;;;;;;;9.20;6.10;;;;;;;22.17;29.24;100960.30;104130;1283;61252;-76
2024/02/04 01:07:10;;;;;;;8.40;6.00;;;;;;;22.17;29.25;100946.30;104098;1286;60517;-75
2024/02/04 01:09:36;;;;;;;9.30;6.30;;;;;;;22.17;29.22;100952.39;104148;1283;60785;-77
2024/02/04 01:12:03;;;;;;;9.50;6.20;;;;;;;22.17;29.27;100955.30;104221;1283;61198;-76
2024/02/04 01:14:28;;;;;;;8.10;5.90;;;;;;;22.18;29.28;100952.73;104061;1286;60618;-76
2024/02/04 01:16:54;;;;;;;8.40;5.80;;;;;;;22.18;29.15;100952.36;104277;1283;60572;-76
2024/02/04 01:19:20;;;;;;;9.90;6.10;;;;;;;22.18;29.23;100952.15;104231;1283;73868;-76
2024/02/04 01:21:45;;;;;;;9.00;6.00;;;;;;;22.17;29.19;100939.85;104254;1281;60580;-76
2024/02/04 01:24:11;;;;;;;9.00;6.10;;;;;;;22.18;29.21;100941.41;103984;1288;60453;-76
2024/02/04 01:26:37;;;;;;;8.50;6.20;;;;;;;22.18;29.24;100947.88;104086;1282;60478;-76
2024/02/04 01:29:03;;;;;;;8.50;6.40;;;;;;;22.18;29.27;100949.13;104095;1283;60475;-77
2024/02/04 01:31:29;;;;;;;7.60;5.70;;;;;;;22.18;29.24;100950.36;104165;1283;60698;-76
2024/02/04 01:33:55;;;;;;;8.60;6.10;;;;;;;22.19;29.11;100949.61;104125;1283;60532;-76
2024/02/04 01:36:20;;;;;;;8.00;6.00;;;;;;;22.19;29.16;100954.45;103998;1283;60824;-76
2024/02/04 01:38:46;;;;;;;7.80;5.70;;;;;;;22.19;29.14;100952.30;104204;1285;61870;-76
2024/02/04 01:41:12;;;;;;;8.90;6.00;;;;;;;22.20;29.17;100965.33;104101;1283;60572;-78
2024/02/04 01:43:37;;;;;;;8.20;6.00;;;;;;;22.19;29.15;100971.46;104022;1283;60611;-77
2024/02/04 01:46:03;;;;;;;7.90;5.70;;;;;;;22.20;29.18;100970.68;104056;1283;60572;-76
2024/02/04 01:48:29;;;;;;;9.10;6.00;;;;;;;22.20;29.22;100960.45;104102;1283;60470;-76
2024/02/04 01:50:55;;;;;;;9.60;5.80;;;;;;;22.20;29.06;100960.30;103835;1286;60590;-76
2024/02/04 01:53:22;;;;;;;8.50;6.00;;;;;;;22.20;29.24;100962.55;103807;1285;60584;-75
2024/02/04 01:55:48;;;;;;;9.10;6.60;;;;;;;22.20;29.19;100956.48;103885;1286;60568;-76
2024/02/04 01:58:15;;;;;;;8.90;6.20;;;;;;;22.20;29.20;100946.79;103845;1286;60679;-76
2024/02/04 02:00:41;;;;;;;8.70;6.30;;;;;;;22.21;29.13;100943.02;103820;1286;60652;-76
2024/02/04 02:03:09;;;;;;;9.60;6.50;;;;;;;22.21;29.06;100942.42;103804;1285;60575;-77
2024/02/04 02:05:35;;;;;;;8.00;5.90;;;;;;;22.21;29.22;100936.18;104080;1286;61296;-75
2024/02/04 02:08:01;;;;;;;12.20;6.10;;;;;;;22.20;29.15;100936.39;103868;1286;60795;-76
2024/02/04 02:10:26;;;;;;;8.30;5.90;;;;;;;22.21;29.24;100934.92;103837;1286;61885;-76
2024/02/04 02:12:58;;;;;;;9.30;5.90;;;;;;;22.21;29.12;100943.66;103891;1287;61519;-76
2024/02/04 02:15:29;;;;;;;8.30;5.90;;;;;;;22.21;29.19;100940.62;103862;1286;60594;-76
2024/02/04 02:17:59;;;;;;;8.00;6.10;;;;;;;22.21;29.20;100934.88;103918;1286;61367;-76
2024/02/04 02:20:47;;;;;;;;;;;;;;;22.22;29.22;100936.11;104193;1283;72471;-76
2024/02/04 02:23:28;;;;;;;8.80;6.00;;;;;;;22.19;29.20;100939.93;104207;1282;72705;-76
2024/02/04 02:25:53;;;;;;;8.00;5.70;;;;;;;22.20;29.19;100944.48;104219;1282;60469;-76
2024/02/04 02:28:19;;;;;;;8.90;5.90;;;;;;;22.21;29.17;100946.04;104159;1283;60600;-76
2024/02/04 02:30:45;;;;;;;8.80;6.10;;;;;;;22.21;29.09;100940.99;104337;1283;60633;-76
2024/02/04 02:33:11;;;;;;;7.50;5.80;;;;;;;22.21;29.24;100932.55;104167;1282;60506;-75
2024/02/04 02:35:36;;;;;;;7.50;5.50;;;;;;;22.22;29.18;100926.26;104135;1283;61069;-76
2024/02/04 02:38:22;;;;;;;7.70;5.60;;;;;;;22.23;29.08;100916.88;104249;1283;60695;-76
2024/02/04 02:40:49;;;;;;;8.20;5.40;;;;;;;22.23;29.16;100911.84;104106;1282;72534;-76
2024/02/04 02:43:15;;;;;;;9.40;6.20;;;;;;;22.22;29.08;100911.35;104442;1285;73489;-76
2024/02/04 02:45:42;;;;;;;8.00;5.60;;;;;;;22.23;29.06;100909.84;104135;1283;60633;-76
2024/02/04 02:48:08;;;;;;;8.90;5.60;;;;;;;22.23;29.21;100910.73;104168;1282;62004;-75
2024/02/04 02:50:36;;;;;;;7.80;5.60;;;;;;;22.24;29.13;100917.32;104224;1282;72476;-77
2024/02/04 02:53:02;;;;;;;8.30;5.40;;;;;;;22.24;29.09;100914.43;104325;1281;73516;-77
2024/02/04 02:55:27;;;;;;;8.40;5.90;;;;;;;22.24;29.12;100906.17;103999;1285;61066;-76
2024/02/04 02:57:53;;;;;;;7.10;5.50;;;;;;;22.25;29.10;100903.07;104391;1282;60533;-76
2024/02/04 03:00:20;;;;;;;7.50;5.40;;;;;;;22.25;29.05;100901.83;104114;1283;60498;-76
2024/02/04 03:02:46;;;;;;;9.30;6.00;;;;;;;22.25;29.20;100903.02;104072;1282;60663;-76
2024/02/04 03:05:13;;;;;;;7.60;5.90;;;;;;;22.25;29.19;100902.12;103890;1289;60646;-76
2024/02/04 03:07:38;;;;;;;8.20;5.60;;;;;;;22.26;29.16;100905.86;104399;1283;60583;-76
2024/02/04 03:10:05;;;;;;;8.60;5.70;;;;;;;22.26;29.06;100908.20;104178;1282;60545;-76
2024/02/04 03:12:31;;;;;;;7.70;5.50;;;;;;;22.26;29.10;100898.12;104038;1283;61039;-76
2024/02/04 03:14:56;;;;;;;8.10;5.50;;;;;;;22.25;29.05;100890.48;104197;1283;60975;-76
2024/02/04 03:17:22;;;;;;;8.00;5.60;;;;;;;22.26;29.08;100882.35;104173;1281;60510;-77
2024/02/04 03:19:48;;;;;;;7.30;5.40;;;;;;;22.26;29.22;100878.05;104050;1283;60574;-77
2024/02/04 03:22:15;;;;;;;7.60;5.30;;;;;;;22.26;29.24;100883.04;103889;1288;61218;-76
2024/02/04 03:24:40;;;;;;;7.50;5.60;;;;;;;22.26;29.02;100879.63;104133;1283;60584;-76
2024/02/04 03:27:06;;;;;;;8.10;5.90;;;;;;;22.27;29.05;100876.92;104229;1283;60584;-76
2024/02/04 03:29:32;;;;;;;8.20;5.50;;;;;;;22.26;29.07;100875.56;104089;1281;60584;-76
2024/02/04 03:31:58;;;;;;;6.50;4.90;;;;;;;22.27;29.23;100873.54;104108;1286;60539;-76
2024/02/04 03:34:23;;;;;;;7.30;5.40;;;;;;;22.26;29.07;100872.84;104057;1288;60626;-76
2024/02/04 03:36:49;;;;;;;7.90;5.50;;;;;;;22.27;29.09;100883.74;104164;1287;73684;-77
2024/02/04 03:39:15;;;;;;;6.80;5.30;;;;;;;22.27;29.06;100891.95;104072;1283;60571;-76
2024/02/04 03:41:42;;;;;;;7.20;5.20;;;;;;;22.27;29.05;100892.35;104129;1283;61327;-76
2024/02/04 03:44:07;;;;;;;8.00;6.00;;;;;;;22.27;29.14;100895.55;104116;1286;61083;-76
2024/02/04 03:46:33;;;;;;;7.40;5.70;;;;;;;22.27;29.04;100898.22;104238;1283;61755;-76
2024/02/04 03:48:59;;;;;;;6.80;5.30;;;;;;;22.28;28.98;100895.51;104165;1282;60538;-77
2024/02/04 03:51:24;;;;;;;8.50;5.60;;;;;;;22.28;29.09;100894.23;104066;1286;60630;-76
2024/02/04 03:53:51;;;;;;;6.70;5.00;;;;;;;22.29;29.07;100893.30;104129;1283;60465;-76
2024/02/04 03:56:16;;;;;;;8.00;5.60;;;;;;;22.29;29.04;100889.14;103999;1283;60622;-76
2024/02/04 03:58:42;;;;;;;8.00;5.60;;;;;;;22.29;29.02;100882.36;104139;1286;60620;-76
2024/02/04 04:01:11;;;;;;;6.80;5.30;;;;;;;22.29;28.93;100889.34;104217;1283;60577;-78
2024/02/04 04:03:44;;;;;;;7.40;5.20;;;;;;;22.29;29.10;100906.17;104072;1287;60464;-77
2024/02/04 04:06:10;;;;;;;7.30;5.00;;;;;;;22.29;29.06;100909.20;104147;1283;72457;-77
2024/02/04 04:08:36;;;;;;;8.90;5.50;;;;;;;22.30;29.14;100904.53;103969;1287;60652;-77
2024/02/04 04:11:02;;;;;;;8.60;5.40;;;;;;;22.29;29.13;100902.05;104086;1283;60648;-77
2024/02/04 04:13:27;;;;;;;7.40;5.10;;;;;;;22.30;28.98;100898.08;104076;1283;60640;-77
2024/02/04 04:15:53;;;;;;;7.00;5.30;;;;;;;22.29;29.15;100902.39;104243;1285;60573;-77
2024/02/04 04:18:19;;;;;;;7.40;5.10;;;;;;;22.30;29.17;100903.98;104146;1286;60529;-77
2024/02/04 04:20:45;;;;;;;6.40;4.90;;;;;;;22.30;29.09;100906.10;104197;1283;60507;-77
2024/02/04 04:23:12;;;;;;;8.30;5.10;;;;;;;22.30;28.98;100906.64;103936;1283;61705;-77
2024/02/04 04:25:38;;;;;;;9.20;5.40;;;;;;;22.30;29.14;100908.59;104096;1282;60447;-77
2024/02/04 04:28:04;;;;;;;6.50;5.00;;;;;;;22.31;29.18;100907.86;104141;1283;60559;-77
2024/02/04 04:30:30;;;;;;;7.80;4.90;;;;;;;22.31;29.05;100910.02;104207;1283;60647;-78
2024/02/04 04:32:56;;;;;;;7.20;4.70;;;;;;;22.31;29.07;100900.48;104086;1283;60700;-77
2024/02/04 04:35:22;;;;;;;7.00;4.90;;;;;;;22.31;29.07;100891.70;104187;1283;60625;-77
2024/02/04 04:37:48;;;;;;;7.00;5.20;;;;;;;22.31;29.09;100889.56;104117;1282;60574;-77
2024/02/04 04:40:13;;;;;;;7.70;5.30;;;;;;;22.31;28.98;100882.22;104134;1283;60581;-77
2024/02/04 04:42:39;;;;;;;7.50;4.90;;;;;;;22.31;28.98;100880.92;104151;1283;61390;-76
2024/02/04 04:45:07;;;;;;;8.10;5.50;;;;;;;22.31;29.05;100884.87;104064;1281;60478;-77
2024/02/04 04:47:34;;;;;;;6.90;5.00;;;;;;;22.32;29.05;100888.77;103935;1289;60466;-77
2024/02/04 04:50:00;;;;;;;7.50;4.80;;;;;;;22.32;29.13;100891.81;104164;1282;72440;-76
2024/02/04 04:52:25;;;;;;;7.50;5.30;;;;;;;22.32;29.18;100894.14;104190;1283;61331;-77
2024/02/04 04:54:51;;;;;;;7.30;4.70;;;;;;;22.32;28.96;100900.20;104135;1281;60478;-76
2024/02/04 04:57:17;;;;;;;6.30;4.70;;;;;;;22.32;29.13;100902.69;103835;1283;60498;-76
2024/02/04 04:59:43;;;;;;;6.40;4.90;;;;;;;22.33;29.09;100912.89;104002;1283;60584;-76
2024/02/04 05:02:10;;;;;;;6.60;4.90;;;;;;;22.33;28.97;100906.98;104157;1286;60533;-76
2024/02/04 05:04:36;;;;;;;7.00;4.90;;;;;;;22.33;29.01;100906.61;104103;1283;60533;-76
2024/02/04 05:07:02;;;;;;;7.80;5.10;;;;;;;22.33;29.11;100908.23;104067;1283;61061;-77
2024/02/04 05:09:27;;;;;;;7.40;5.10;;;;;;;22.33;28.97;100907.82;104239;1283;60607;-76
2024/02/04 05:11:53;;;;;;;7.10;5.00;;;;;;;22.34;29.02;100906.39;104237;1282;72258;-77
2024/02/04 05:14:19;;;;;;;6.90;4.70;;;;;;;22.33;28.98;100902.65;104260;1283;60994;-77
2024/02/04 05:16:45;;;;;;;7.30;4.80;;;;;;;22.33;29.11;100899.21;104128;1283;60622;-77
2024/02/04 05:19:12;;;;;;;6.00;4.50;;;;;;;22.34;29.00;100904.58;104196;1282;60515;-78
2024/02/04 05:21:40;;;;;;;6.90;5.00;;;;;;;22.34;28.94;100911.91;104154;1286;60513;-77
2024/02/04 05:24:06;;;;;;;6.50;4.50;;;;;;;22.34;29.01;100915.52;104044;1283;60625;-77
2024/02/04 05:26:31;;;;;;;7.00;4.90;;;;;;;22.34;29.02;100919.97;104112;1283;60497;-77
2024/02/04 05:28:57;;;;;;;6.20;4.40;;;;;;;22.34;28.90;100913.70;104191;1281;61029;-76
2024/02/04 05:31:23;;;;;;;6.50;4.90;;;;;;;22.34;29.06;100905.46;104113;1283;60972;-77
2024/02/04 05:33:48;;;;;;;7.60;4.60;;;;;;;22.35;29.06;100903.28;104138;1286;60600;-77
2024/02/04 05:36:14;;;;;;;7.00;5.00;;;;;;;22.35;29.12;100898.60;104038;1283;60705;-76
2024/02/04 05:38:43;;;;;;;6.80;5.00;;;;;;;22.35;28.99;100898.02;104286;1283;60487;-77
2024/02/04 05:41:09;;;;;;;6.10;4.70;;;;;;;22.35;29.02;100899.47;103993;1285;60484;-76
2024/02/04 05:43:34;;;;;;;6.10;4.50;;;;;;;22.35;29.04;100905.59;104243;1283;61310;-76
2024/02/04 05:46:00;;;;;;;6.60;4.90;;;;;;;22.36;28.96;100911.99;104126;1283;60642;-76
2024/02/04 05:48:26;;;;;;;6.80;4.90;;;;;;;22.35;29.00;100904.11;104143;1283;60574;-76
2024/02/04 05:50:52;;;;;;;7.10;4.90;;;;;;;22.35;29.02;100903.75;103856;1288;60527;-76
2024/02/04 05:53:17;;;;;;;6.50;4.70;;;;;;;22.36;28.92;100903.20;104188;1283;60952;-76
2024/02/04 05:55:44;;;;;;;6.40;4.60;;;;;;;22.36;28.97;100903.71;104105;1285;72490;-76
2024/02/04 05:58:10;;;;;;;7.20;5.10;;;;;;;22.36;29.06;100900.30;104216;1281;72525;-76
2024/02/04 06:00:36;;;;;;;6.60;4.80;;;;;;;22.36;29.00;100904.08;104059;1283;60508;-77
2024/02/04 06:03:01;;;;;;;6.50;4.70;;;;;;;22.36;29.00;100903.86;104233;1283;61551;-76
2024/02/04 06:05:27;;;;;;;6.30;5.00;;;;;;;22.36;29.04;100909.80;103999;1288;60582;-76
2024/02/04 06:07:53;;;;;;;7.10;4.50;;;;;;;22.37;29.19;100913.36;104054;1283;60671;-76
2024/02/04 06:10:19;;;;;;;5.70;4.30;;;;;;;22.37;29.01;100923.92;104411;1283;60487;-77
2024/02/04 06:12:45;;;;;;;6.40;4.70;;;;;;;22.37;28.99;100925.54;104081;1283;61465;-76
2024/02/04 06:15:17;;;;;;;6.50;4.50;;;;;;;22.37;28.96;100923.36;104205;1287;60771;-76
2024/02/04 06:17:42;;;;;;;7.10;4.60;;;;;;;22.38;29.04;100927.98;104132;1286;72344;-76
2024/02/04 06:20:09;;;;;;;7.50;4.90;;;;;;;22.37;29.04;100932.65;103969;1283;60596;-76
2024/02/04 06:22:35;;;;;;;7.00;4.70;;;;;;;22.38;29.05;100930.84;103937;1286;60617;-76
2024/02/04 06:25:01;;;;;;;6.40;4.70;;;;;;;22.38;29.02;100925.24;104276;1283;61054;-76
2024/02/04 06:27:27;;;;;;;6.90;5.00;;;;;;;22.38;29.00;100924.19;104135;1282;60495;-76
2024/02/04 06:29:52;;;;;;;6.60;5.00;;;;;;;22.38;29.03;100931.92;104043;1283;60493;-76
2024/02/04 06:32:20;;;;;;;6.90;4.60;;;;;;;22.37;29.03;100937.31;104136;1283;60702;-77
2024/02/04 06:34:46;;;;;;;6.70;4.70;;;;;;;22.39;29.01;100942.98;104115;1282;60530;-76
2024/02/04 06:37:12;;;;;;;7.40;5.00;;;;;;;22.38;28.95;100947.48;104187;1283;60582;-77
2024/02/04 06:39:38;;;;;;;5.60;4.30;;;;;;;22.39;29.00;100948.16;104154;1287;61461;-77
2024/02/04 06:42:04;;;;;;;7.00;4.80;;;;;;;22.39;29.05;100944.55;103933;1282;60552;-76
2024/02/04 06:44:30;;;;;;;5.70;4.40;;;;;;;22.39;28.83;100938.83;104258;1283;60591;-76
2024/02/04 06:46:55;;;;;;;6.30;4.80;;;;;;;22.39;29.02;100945.08;104307;1285;60450;-77
2024/02/04 06:49:21;;;;;;;6.90;4.90;;;;;;;22.39;28.97;100949.02;104126;1282;60641;-77
2024/02/04 06:51:47;;;;;;;9.70;5.10;;;;;;;22.39;29.03;100953.15;104042;1283;60578;-76
2024/02/04 06:54:14;;;;;;;6.60;4.70;;;;;;;22.39;29.01;100949.36;104204;1283;61093;-76
2024/02/04 06:56:40;;;;;;;6.70;4.50;;;;;;;22.39;28.81;100957.06;104145;1288;60638;-76
2024/02/04 06:59:06;;;;;;;6.00;4.50;;;;;;;22.39;28.91;100951.71;104185;1285;60485;-76
2024/02/04 07:01:32;;;;;;;7.20;4.80;;;;;;;22.40;28.91;100945.59;104021;1282;61031;-76
2024/02/04 07:03:58;;;;;;;7.30;4.90;;;;;;;22.40;28.96;100945.75;104205;1282;60625;-77
2024/02/04 07:06:24;;;;;;;6.10;4.30;;;;;;;22.40;28.91;100944.50;104076;1282;60546;-76
2024/02/04 07:08:50;;;;;;;6.40;4.70;;;;;;;22.40;28.98;100939.98;104291;1283;61352;-77
2024/02/04 07:11:16;;;;;;;6.00;4.70;;;;;;;22.40;28.98;100941.98;104209;1285;60553;-76
2024/02/04 07:13:42;;;;;;;6.60;5.10;;;;;;;22.40;28.95;100948.04;104149;1285;60638;-75
2024/02/04 07:16:07;;;;;;;7.80;5.20;;;;;;;22.40;29.03;100947.34;104121;1283;61051;-75
2024/02/04 07:18:33;;;;;;;6.90;5.10;;;;;;;22.40;28.99;100946.24;104036;1286;60677;-77
2024/02/04 07:20:59;;;;;;;7.60;5.10;;;;;;;22.40;28.94;100948.41;104130;1287;60638;-76
2024/02/04 07:23:25;;;;;;;7.30;5.20;;;;;;;22.40;28.91;100948.59;104147;1283;60604;-76
2024/02/04 07:25:50;;;;;;;5.80;4.70;;;;;;;22.40;28.92;100946.23;104072;1283;73662;-75
2024/02/04 07:28:16;;;;;;;7.60;5.10;;;;;;;22.40;28.92;100949.13;104003;1285;60592;-76
2024/02/04 07:30:42;;;;;;;7.20;4.90;;;;;;;22.41;28.95;100945.88;103917;1288;60657;-75
2024/02/04 07:33:08;;;;;;;6.40;4.50;;;;;;;22.40;28.95;100947.33;104203;1282;60423;-74
2024/02/04 07:35:34;;;;;;;6.30;4.80;;;;;;;22.40;29.03;100954.66;104163;1288;60700;-76
2024/02/04 07:38:00;;;;;;;8.70;5.00;;;;;;;22.41;28.92;100954.45;104044;1283;61286;-76
2024/02/04 07:40:27;;;;;;;6.90;5.00;;;;;;;22.41;28.88;100950.34;104074;1283;60495;-75
2024/02/04 07:42:54;;;;;;;8.00;4.80;;;;;;;22.41;28.94;100946.88;104228;1283;60708;-76
2024/02/04 07:45:19;;;;;;;7.00;5.30;;;;;;;22.41;28.99;100941.33;104039;1283;72300;-76
2024/02/04 07:47:45;;;;;;;7.30;4.80;;;;;;;22.41;29.03;100937.73;104191;1283;60478;-76
2024/02/04 07:50:11;;;;;;;6.50;4.80;;;;;;;22.42;28.91;100929.44;104190;1283;60978;-76
2024/02/04 07:52:37;;;;;;;5.80;4.60;;;;;;;22.42;28.95;100929.40;104135;1283;60565;-76
2024/02/04 07:55:02;;;;;;;7.10;4.80;;;;;;;22.43;28.94;100927.94;104082;1288;60617;-76
2024/02/04 07:57:28;;;;;;;7.20;5.10;;;;;;;22.43;29.06;100922.23;103980;1283;60590;-76
2024/02/04 07:59:54;;;;;;;8.40;5.10;;;;;;;22.42;28.84;100909.48;104202;1283;73487;-76
2024/02/04 08:02:19;;;;;;;6.70;4.90;;;;;;;22.43;29.03;100901.20;103855;1288;60712;-76
2024/02/04 08:04:45;;;;;;;5.70;4.50;;;;;;;22.43;28.98;100905.51;103090;1286;1100885;-76
2024/02/04 08:07:11;;;;;;;6.10;4.70;;;;;;;22.44;29.01;100902.97;103923;1286;60709;-76
2024/02/04 08:09:36;;;;;;;6.40;5.00;;;;;;;22.44;29.09;100898.11;103831;1286;61735;-76
2024/02/04 08:12:03;;;;;;;8.30;5.40;;;;;;;22.44;28.85;100908.14;103860;1286;60677;-76
2024/02/04 08:14:29;;;;;;;6.00;4.70;;;;;;;22.44;28.94;100915.66;103804;1286;60571;-76
2024/02/04 08:16:56;;;;;;;7.70;5.00;;;;;;;22.45;28.86;100927.63;103839;1286;60740;-76
2024/02/04 08:19:22;;;;;;;5.90;4.70;;;;;;;22.45;28.94;100941.78;103801;1286;61627;-76
2024/02/04 08:21:47;;;;;;;7.00;5.30;;;;;;;22.46;29.06;100952.13;103851;1286;61907;-77
2024/02/04 08:24:14;;;;;;;7.10;5.10;;;;;;;22.45;28.92;100964.33;103641;1286;60501;-76
2024/02/04 08:26:39;;;;;;;6.50;4.80;;;;;;;22.46;28.99;100962.16;103882;1285;60581;-76
2024/02/04 08:29:05;;;;;;;7.10;4.90;;;;;;;22.46;28.98;100959.98;103881;1286;60683;-77
2024/02/04 08:31:32;;;;;;;7.70;4.90;;;;;;;22.46;28.93;100959.48;103653;1291;60542;-77
2024/02/04 08:33:57;;;;;;;7.80;5.50;;;;;;;22.47;28.94;100958.89;103963;1283;74072;-77
2024/02/04 08:36:23;;;;;;;7.20;5.00;;;;;;;22.46;28.97;100957.30;104108;1285;61302;-76
2024/02/04 08:38:49;;;;;;;6.80;4.80;;;;;;;22.47;28.93;100954.74;104227;1283;60661;-76
2024/02/04 08:41:14;;;;;;;6.80;5.20;;;;;;;22.47;28.90;100958.48;104016;1288;60552;-76
2024/02/04 08:43:40;;;;;;;7.00;5.40;;;;;;;22.47;28.96;100957.05;104102;1288;60651;-76
2024/02/04 08:46:06;;;;;;;7.00;5.20;;;;;;;22.48;28.95;100959.30;104272;1285;60571;-76
2024/02/04 08:48:31;;;;;;;7.70;5.20;;;;;;;22.48;29.04;100953.92;104051;1286;60619;-76
2024/02/04 08:50:57;;;;;;;7.50;5.10;;;;;;;22.48;29.03;100943.16;104267;1283;61323;-76
2024/02/04 08:53:23;;;;;;;8.10;5.30;;;;;;;22.49;29.00;100942.20;104224;1283;60520;-77
2024/02/04 08:55:49;;;;;;;7.20;4.90;;;;;;;22.49;28.97;100940.59;104210;1285;61109;-77
2024/02/04 08:58:15;;;;;;;6.40;5.20;;;;;;;22.50;28.88;100938.58;104083;1289;60647;-76
2024/02/04 09:00:41;;;;;;;6.50;5.00;;;;;;;22.49;28.90;100940.41;104293;1283;60485;-76
2024/02/04 09:03:06;;;;;;;7.50;4.80;;;;;;;22.49;28.86;100938.40;104392;1287;60669;-77
2024/02/04 09:05:32;;;;;;;7.70;5.00;;;;;;;22.50;28.98;100940.19;103977;1283;72348;-76
2024/02/04 09:07:58;;;;;;;6.70;5.00;;;;;;;22.50;28.91;100946.98;104317;1283;60469;-76
2024/02/04 09:10:24;;;;;;;5.70;4.30;;;;;;;22.50;28.87;100950.88;104110;1282;60548;-77
2024/02/04 09:12:50;;;;;;;7.30;5.00;;;;;;;22.51;28.96;100957.48;104166;1283;60647;-78
2024/02/04 09:15:15;;;;;;;8.20;5.30;;;;;;;22.52;28.89;100962.10;104083;1283;60556;-76
2024/02/04 09:17:41;;;;;;;7.50;5.10;;;;;;;22.52;29.00;100959.94;104144;1283;60968;-76
2024/02/04 09:20:07;;;;;;;7.00;5.10;;;;;;;22.52;28.98;100963.16;104187;1283;60625;-76
2024/02/04 09:22:33;;;;;;;7.60;5.20;;;;;;;22.52;29.01;100969.40;104200;1283;60583;-76
2024/02/04 09:24:59;;;;;;;9.30;5.30;;;;;;;22.53;28.92;100964.34;104011;1282;60622;-77
2024/02/04 09:27:25;;;;;;;8.40;5.50;;;;;;;22.53;28.91;100965.73;104228;1285;60562;-76
2024/02/04 09:29:51;;;;;;;7.40;5.30;;;;;;;22.53;29.03;100968.79;104154;1283;60558;-76
2024/02/04 09:32:17;;;;;;;8.70;5.30;;;;;;;22.53;29.02;100970.55;104175;1286;60470;-76
2024/02/04 09:34:43;;;;;;;7.00;4.90;;;;;;;22.54;28.98;100967.85;104050;1288;60588;-76
2024/02/04 09:37:09;;;;;;;8.40;5.40;;;;;;;22.54;28.97;100967.13;104373;1282;60568;-77
2024/02/04 09:39:34;;;;;;;9.20;5.20;;;;;;;22.53;28.89;100965.40;104187;1289;60638;-76
2024/02/04 09:42:00;;;;;;;8.80;5.30;;;;;;;22.54;29.04;100966.17;104118;1283;73694;-76
2024/02/04 09:44:29;;;;;;;10.00;5.30;;;;;;;22.54;28.94;100957.40;104005;1283;62096;-76
2024/02/04 09:46:58;;;;;;;8.00;5.20;;;;;;;22.54;29.04;100951.14;104241;1283;60581;-76
2024/02/04 09:49:24;;;;;;;8.30;5.50;;;;;;;22.55;29.05;100949.29;104135;1283;72252;-76
2024/02/04 09:51:49;;;;;;;8.50;5.50;;;;;;;22.55;29.05;100937.64;104007;1288;60588;-76
2024/02/04 09:54:15;;;;;;;7.60;5.60;;;;;;;22.55;29.00;100935.27;104184;1283;60976;-76
2024/02/04 09:56:41;;;;;;;7.60;5.70;;;;;;;22.55;28.89;100928.10;104180;1283;60595;-77
2024/02/04 09:59:07;;;;;;;7.80;5.30;;;;;;;22.55;28.99;100918.95;104353;1285;60472;-76
2024/02/04 10:01:33;;;;;;;8.20;5.10;;;;;;;22.56;28.98;100922.84;104148;1283;60580;-76
2024/02/04 10:03:58;;;;;;;11.40;5.90;;;;;;;22.56;29.03;100935.73;104176;1283;60617;-76
2024/02/04 10:06:24;;;;;;;8.40;5.70;;;;;;;22.56;28.98;100938.42;104191;1284;60593;-76
2024/02/04 10:08:50;;;;;;;8.20;5.60;;;;;;;22.56;29.04;100936.43;104196;1287;60622;-76
2024/02/04 10:11:16;;;;;;;8.80;5.70;;;;;;;22.56;29.08;100938.23;104197;1288;60606;-76
2024/02/04 10:13:49;;;;;;;7.40;5.50;;;;;;;22.56;28.92;100931.24;104262;1285;60584;-76
2024/02/04 10:16:16;;;;;;;10.70;6.00;;;;;;;22.57;28.97;100932.08;104366;1285;60539;-76
2024/02/04 10:18:45;;;;;;;8.90;5.20;;;;;;;22.57;29.08;100941.92;104052;1283;60613;-76
2024/02/04 10:21:17;;;;;;;8.90;5.80;;;;;;;22.58;29.10;100937.77;104179;1286;72460;-76
2024/02/04 10:23:43;;;;;;;8.40;6.20;;;;;;;22.58;29.02;100938.48;104108;1282;73423;-76
2024/02/04 10:26:09;;;;;;;8.60;5.60;;;;;;;22.58;29.07;100950.48;103982;1290;60678;-76
2024/02/04 10:28:34;;;;;;;8.50;5.70;;;;;;;22.58;28.95;100951.73;103889;1288;60527;-76
2024/02/04 10:31:00;;;;;;;8.40;5.60;;;;;;;22.58;29.01;100947.40;104188;1282;60647;-75
2024/02/04 10:33:26;;;;;;;8.40;5.60;;;;;;;22.59;29.04;100941.80;103864;1282;61052;-77
2024/02/04 10:35:52;;;;;;;8.60;5.60;;;;;;;22.59;28.96;100943.38;103966;1288;60571;-77
2024/02/04 10:38:17;;;;;;;9.40;6.70;;;;;;;22.60;28.92;100937.07;104227;1287;60553;-77
2024/02/04 10:40:43;;;;;;;8.40;5.80;;;;;;;22.60;28.89;100936.67;104293;1282;60567;-78
2024/02/04 10:43:09;;;;;;;7.80;5.70;;;;;;;22.61;29.09;100937.17;103931;1281;60552;-78
2024/02/04 10:45:35;;;;;;;8.80;6.10;;;;;;;22.61;28.94;100933.22;104131;1283;60582;-77
2024/02/04 10:48:02;;;;;;;8.50;5.80;;;;;;;22.61;29.06;100924.06;104073;1287;60542;-75
2024/02/04 10:50:29;;;;;;;8.70;5.60;;;;;;;22.61;29.04;100924.58;104040;1287;60601;-76
2024/02/04 10:52:57;;;;;;;7.70;5.80;;;;;;;22.62;29.05;100921.70;103878;1282;60709;-76
2024/02/04 10:55:27;;;;;;;9.10;6.10;;;;;;;22.62;28.97;100914.30;104153;1286;72858;-76
2024/02/04 10:57:53;;;;;;;9.40;5.70;;;;;;;22.62;29.01;100914.65;104129;1287;60549;-77
2024/02/04 11:00:20;;;;;;;8.00;5.70;;;;;;;22.63;29.07;100917.64;103888;1282;60901;-76
2024/02/04 11:02:48;;;;;;;8.70;5.80;;;;;;;22.63;28.97;100915.13;103861;1283;60594;-77
2024/02/04 11:05:13;;;;;;;7.30;5.70;;;;;;;22.64;29.00;100910.42;104011;1283;73784;-77
2024/02/04 11:07:39;;;;;;;7.90;5.70;;;;;;;22.64;28.97;100901.61;104013;1287;60487;-77
2024/02/04 11:10:05;;;;;;;7.80;5.30;;;;;;;22.64;28.99;100903.80;104014;1282;60543;-77
2024/02/04 11:12:32;;;;;;;8.40;6.00;;;;;;;22.64;29.02;100903.79;104012;1282;61011;-77